sensor_id;sensor_type;location;lat;lon;timestamp;pressure;altitude;pressure_sealevel;temperature;humidity
80911;BME280;70359;51.420;7.032;2023-06-10T00:00:44;999.9125;;;22.57;44.55664
80911;BME280;70359;51.420;7.032;2023-06-10T00:03:09;999.9055;;;22.53;44.89258
80911;BME280;70359;51.420;7.032;2023-06-10T00:05:34;999.9299;;;22.54;44.37988
80911;BME280;70359;51.420;7.032;2023-06-10T00:07:59;999.9656;;;22.53;44.35547
80911;BME280;70359;51.420;7.032;2023-06-10T00:10:24;999.963;;;22.52;44.45996
80911;BME280;70359;51.420;7.032;2023-06-10T00:12:49;999.9408;;;22.47;44.39648
80911;BME280;70359;51.420;7.032;2023-06-10T00:15:14;999.916;;;22.45;44.125
80911;BME280;70359;51.420;7.032;2023-06-10T00:17:39;999.949;;;22.41;44.27344
80911;BME280;70359;51.420;7.032;2023-06-10T00:20:05;999.9339;;;22.37;44.6084
80911;BME280;70359;51.420;7.032;2023-06-10T00:22:29;999.8892;;;22.33;44.73242
80911;BME280;70359;51.420;7.032;2023-06-10T00:24:54;999.8596;;;22.28;44.96094
80911;BME280;70359;51.420;7.032;2023-06-10T00:27:19;999.868;;;22.25;45.07422
80911;BME280;70359;51.420;7.032;2023-06-10T00:29:44;999.8801;;;22.18;45.16016
80911;BME280;70359;51.420;7.032;2023-06-10T00:32:10;999.8563;;;22.11;45.67773
80911;BME280;70359;51.420;7.032;2023-06-10T00:34:34;999.8666;;;22.06;45.49902
80911;BME280;70359;51.420;7.032;2023-06-10T00:36:59;999.8956;;;22.02;45.9375
80911;BME280;70359;51.420;7.032;2023-06-10T00:39:24;999.9172;;;22.03;45.72852
80911;BME280;70359;51.420;7.032;2023-06-10T00:41:49;999.9353;;;21.96;46.04785
80911;BME280;70359;51.420;7.032;2023-06-10T00:44:15;999.9619;;;21.93;45.96289
80911;BME280;70359;51.420;7.032;2023-06-10T00:46:39;999.9514;;;21.91;46.14746
80911;BME280;70359;51.420;7.032;2023-06-10T00:49:04;999.9512;;;21.85;46.10742
80911;BME280;70359;51.420;7.032;2023-06-10T00:51:29;999.9494;;;21.83;45.90723
80911;BME280;70359;51.420;7.032;2023-06-10T00:53:54;999.926;;;21.8;46.37012
80911;BME280;70359;51.420;7.032;2023-06-10T00:56:19;999.9268;;;21.78;46.08789
80911;BME280;70359;51.420;7.032;2023-06-10T00:58:44;999.9631;;;21.77;45.91211
80911;BME280;70359;51.420;7.032;2023-06-10T01:01:09;999.9639;;;21.74;46.03711
80911;BME280;70359;51.420;7.032;2023-06-10T01:03:34;1000.008;;;21.72;46.10547
80911;BME280;70359;51.420;7.032;2023-06-10T01:06:02;1000.001;;;21.68;46.1709
80911;BME280;70359;51.420;7.032;2023-06-10T01:08:27;999.9734;;;21.67;46.00684
80911;BME280;70359;51.420;7.032;2023-06-10T01:10:51;999.9842;;;21.65;45.98242
80911;BME280;70359;51.420;7.032;2023-06-10T01:13:14;1000.028;;;21.63;45.94434
80911;BME280;70359;51.420;7.032;2023-06-10T01:15:39;1000.073;;;21.63;45.73438
80911;BME280;70359;51.420;7.032;2023-06-10T01:18:05;1000.075;;;21.57;46.50977
80911;BME280;70359;51.420;7.032;2023-06-10T01:20:30;1000.063;;;21.52;46.64453
80911;BME280;70359;51.420;7.032;2023-06-10T01:22:55;1000.099;;;21.51;46.94531
80911;BME280;70359;51.420;7.032;2023-06-10T01:25:19;1000.122;;;21.49;47.02637
80911;BME280;70359;51.420;7.032;2023-06-10T01:27:44;1000.092;;;21.47;47.2793
80911;BME280;70359;51.420;7.032;2023-06-10T01:30:11;1000.074;;;21.45;47.23047
80911;BME280;70359;51.420;7.032;2023-06-10T01:32:37;1000.105;;;21.43;47.4502
80911;BME280;70359;51.420;7.032;2023-06-10T01:34:59;1000.085;;;21.45;46.68262
80911;BME280;70359;51.420;7.032;2023-06-10T01:37:24;1000.11;;;21.45;47.33496
80911;BME280;70359;51.420;7.032;2023-06-10T01:39:50;1000.083;;;21.42;47.37891
80911;BME280;70359;51.420;7.032;2023-06-10T01:42:14;1000.089;;;21.4;47.46875
80911;BME280;70359;51.420;7.032;2023-06-10T01:44:40;1000.08;;;21.39;47.4209
80911;BME280;70359;51.420;7.032;2023-06-10T01:47:05;1000.056;;;21.29;47.62109
80911;BME280;70359;51.420;7.032;2023-06-10T01:49:29;1000.07;;;21.26;47.9209
80911;BME280;70359;51.420;7.032;2023-06-10T01:51:54;1000.06;;;21.23;47.94043
80911;BME280;70359;51.420;7.032;2023-06-10T01:54:19;1000.093;;;21.21;48.11328
80911;BME280;70359;51.420;7.032;2023-06-10T01:56:44;1000.089;;;21.15;47.9082
80911;BME280;70359;51.420;7.032;2023-06-10T01:59:09;1000.108;;;21.16;48.28125
80911;BME280;70359;51.420;7.032;2023-06-10T02:01:35;1000.129;;;21.14;48.15137
80911;BME280;70359;51.420;7.032;2023-06-10T02:03:59;1000.122;;;21.09;48.16895
80911;BME280;70359;51.420;7.032;2023-06-10T02:06:25;1000.107;;;21.06;47.91016
80911;BME280;70359;51.420;7.032;2023-06-10T02:08:50;1000.124;;;21.06;48.41016
80911;BME280;70359;51.420;7.032;2023-06-10T02:11:15;1000.155;;;21.04;47.83887
80911;BME280;70359;51.420;7.032;2023-06-10T02:13:40;1000.133;;;21;48.33496
80911;BME280;70359;51.420;7.032;2023-06-10T02:16:05;1000.11;;;21;47.6709
80911;BME280;70359;51.420;7.032;2023-06-10T02:18:30;1000.137;;;20.96;47.8418
80911;BME280;70359;51.420;7.032;2023-06-10T02:20:55;1000.155;;;20.98;48.06543
80911;BME280;70359;51.420;7.032;2023-06-10T02:23:20;1000.152;;;20.97;48.67969
80911;BME280;70359;51.420;7.032;2023-06-10T02:25:45;1000.231;;;20.98;48.20508
80911;BME280;70359;51.420;7.032;2023-06-10T02:28:10;1000.216;;;20.97;48.34277
80911;BME280;70359;51.420;7.032;2023-06-10T02:30:35;1000.18;;;20.97;48.95996
80911;BME280;70359;51.420;7.032;2023-06-10T02:33:00;1000.23;;;20.9;48.52051
80911;BME280;70359;51.420;7.032;2023-06-10T02:35:25;1000.227;;;20.91;48.8125
80911;BME280;70359;51.420;7.032;2023-06-10T02:37:50;1000.214;;;20.88;49.06543
80911;BME280;70359;51.420;7.032;2023-06-10T02:40:15;1000.222;;;20.87;48.94727
80911;BME280;70359;51.420;7.032;2023-06-10T02:42:40;1000.17;;;20.82;49
80911;BME280;70359;51.420;7.032;2023-06-10T02:45:05;1000.209;;;20.79;49.24121
80911;BME280;70359;51.420;7.032;2023-06-10T02:47:30;1000.196;;;20.77;49.39063
80911;BME280;70359;51.420;7.032;2023-06-10T02:49:55;1000.205;;;20.74;49.56152
80911;BME280;70359;51.420;7.032;2023-06-10T02:52:20;1000.198;;;20.71;49.48828
80911;BME280;70359;51.420;7.032;2023-06-10T02:54:45;1000.181;;;20.66;49.34375
80911;BME280;70359;51.420;7.032;2023-06-10T02:57:10;1000.158;;;20.64;49.52734
80911;BME280;70359;51.420;7.032;2023-06-10T02:59:35;1000.179;;;20.61;49.77832
80911;BME280;70359;51.420;7.032;2023-06-10T03:02:00;1000.156;;;20.58;49.72852
80911;BME280;70359;51.420;7.032;2023-06-10T03:04:25;1000.15;;;20.55;49.90039
80911;BME280;70359;51.420;7.032;2023-06-10T03:06:50;1000.194;;;20.5;49.90625
80911;BME280;70359;51.420;7.032;2023-06-10T03:09:15;1000.141;;;20.49;49.99805
80911;BME280;70359;51.420;7.032;2023-06-10T03:11:40;1000.128;;;20.42;50.14063
80911;BME280;70359;51.420;7.032;2023-06-10T03:14:05;1000.12;;;20.41;50.12793
80911;BME280;70359;51.420;7.032;2023-06-10T03:16:30;1000.156;;;20.38;50.25195
80911;BME280;70359;51.420;7.032;2023-06-10T03:18:55;1000.143;;;20.37;50.12305
80911;BME280;70359;51.420;7.032;2023-06-10T03:21:20;1000.146;;;20.35;50.31836
80911;BME280;70359;51.420;7.032;2023-06-10T03:23:45;1000.153;;;20.32;50.36133
80911;BME280;70359;51.420;7.032;2023-06-10T03:26:10;1000.183;;;20.3;50.47461
80911;BME280;70359;51.420;7.032;2023-06-10T03:28:35;1000.173;;;20.28;50.32324
80911;BME280;70359;51.420;7.032;2023-06-10T03:31:00;1000.174;;;20.2;50.63867
80911;BME280;70359;51.420;7.032;2023-06-10T03:33:25;1000.203;;;20.19;50.77637
80911;BME280;70359;51.420;7.032;2023-06-10T03:35:50;1000.223;;;20.22;50.87305
80911;BME280;70359;51.420;7.032;2023-06-10T03:38:15;1000.219;;;20.22;51.17285
80911;BME280;70359;51.420;7.032;2023-06-10T03:40:40;1000.22;;;20.21;50.91797
80911;BME280;70359;51.420;7.032;2023-06-10T03:43:05;1000.273;;;20.21;50.88281
80911;BME280;70359;51.420;7.032;2023-06-10T03:45:30;1000.246;;;20.21;50.97461
80911;BME280;70359;51.420;7.032;2023-06-10T03:47:55;1000.291;;;20.21;51.26563
80911;BME280;70359;51.420;7.032;2023-06-10T03:50:20;1000.316;;;20.23;51.03613
80911;BME280;70359;51.420;7.032;2023-06-10T03:52:45;1000.325;;;20.23;50.81641
80911;BME280;70359;51.420;7.032;2023-06-10T03:55:10;1000.339;;;20.24;50.90918
80911;BME280;70359;51.420;7.032;2023-06-10T03:57:35;1000.334;;;20.24;50.94434
80911;BME280;70359;51.420;7.032;2023-06-10T04:00:00;1000.348;;;20.24;51.1416
80911;BME280;70359;51.420;7.032;2023-06-10T04:02:25;1000.326;;;20.17;51.27246
80911;BME280;70359;51.420;7.032;2023-06-10T04:04:50;1000.336;;;20.16;51.53809
80911;BME280;70359;51.420;7.032;2023-06-10T04:07:15;1000.369;;;20.13;51.43066
80911;BME280;70359;51.420;7.032;2023-06-10T04:09:40;1000.383;;;20.14;51.35059
80911;BME280;70359;51.420;7.032;2023-06-10T04:12:08;1000.377;;;20.12;51.34863
80911;BME280;70359;51.420;7.032;2023-06-10T04:14:30;1000.42;;;20.09;51.63379
80911;BME280;70359;51.420;7.032;2023-06-10T04:16:55;1000.458;;;20.05;51.81543
80911;BME280;70359;51.420;7.032;2023-06-10T04:19:20;1000.484;;;20.08;51.55176
80911;BME280;70359;51.420;7.032;2023-06-10T04:21:45;1000.473;;;20.1;51.62402
80911;BME280;70359;51.420;7.032;2023-06-10T04:24:10;1000.45;;;20.11;51.5332
80911;BME280;70359;51.420;7.032;2023-06-10T04:26:35;1000.505;;;20.14;51.59375
80911;BME280;70359;51.420;7.032;2023-06-10T04:29:00;1000.508;;;20.17;51.45801
80911;BME280;70359;51.420;7.032;2023-06-10T04:31:25;1000.509;;;20.17;51.39941
80911;BME280;70359;51.420;7.032;2023-06-10T04:33:50;1000.51;;;20.19;51.36816
80911;BME280;70359;51.420;7.032;2023-06-10T04:36:15;1000.509;;;20.22;51.40625
80911;BME280;70359;51.420;7.032;2023-06-10T04:38:40;1000.55;;;20.18;51.56348
80911;BME280;70359;51.420;7.032;2023-06-10T04:41:05;1000.539;;;20.18;51.68066
80911;BME280;70359;51.420;7.032;2023-06-10T04:43:30;1000.566;;;20.23;51.66211
80911;BME280;70359;51.420;7.032;2023-06-10T04:45:55;1000.547;;;20.27;51.39941
80911;BME280;70359;51.420;7.032;2023-06-10T04:48:20;1000.552;;;20.22;51.76563
80911;BME280;70359;51.420;7.032;2023-06-10T04:50:45;1000.554;;;20.31;51.8457
80911;BME280;70359;51.420;7.032;2023-06-10T04:53:10;1000.544;;;20.29;51.69238
80911;BME280;70359;51.420;7.032;2023-06-10T04:55:35;1000.54;;;20.3;51.75195
80911;BME280;70359;51.420;7.032;2023-06-10T04:58:00;1000.615;;;20.32;52.20605
80911;BME280;70359;51.420;7.032;2023-06-10T05:00:25;1000.549;;;20.33;51.84766
80911;BME280;70359;51.420;7.032;2023-06-10T05:02:50;1000.591;;;20.39;51.35645
80911;BME280;70359;51.420;7.032;2023-06-10T05:05:15;1000.583;;;20.38;51.72656
80911;BME280;70359;51.420;7.032;2023-06-10T05:07:40;1000.557;;;20.39;51.36621
80911;BME280;70359;51.420;7.032;2023-06-10T05:10:05;1000.534;;;20.39;51.47168
80911;BME280;70359;51.420;7.032;2023-06-10T05:12:30;1000.55;;;20.44;51.43066
80911;BME280;70359;51.420;7.032;2023-06-10T05:14:55;1000.529;;;20.49;51.35547
80911;BME280;70359;51.420;7.032;2023-06-10T05:17:20;1000.598;;;20.47;51.22656
80911;BME280;70359;51.420;7.032;2023-06-10T05:19:45;1000.602;;;20.51;51.29883
80911;BME280;70359;51.420;7.032;2023-06-10T05:22:10;1000.596;;;20.51;50.99805
80911;BME280;70359;51.420;7.032;2023-06-10T05:24:35;1000.603;;;20.6;51.08984
80911;BME280;70359;51.420;7.032;2023-06-10T05:27:10;1000.62;;;20.65;51.12988
80911;BME280;70359;51.420;7.032;2023-06-10T05:29:25;1000.606;;;20.65;51.00293
80911;BME280;70359;51.420;7.032;2023-06-10T05:31:50;1000.63;;;20.75;50.99023
80911;BME280;70359;51.420;7.032;2023-06-10T05:34:15;1000.601;;;20.74;50.96582
80911;BME280;70359;51.420;7.032;2023-06-10T05:36:40;1000.588;;;20.79;50.14648
80911;BME280;70359;51.420;7.032;2023-06-10T05:39:05;1000.637;;;20.85;50.44434
80911;BME280;70359;51.420;7.032;2023-06-10T05:41:30;1000.646;;;20.93;50.7207
80911;BME280;70359;51.420;7.032;2023-06-10T05:43:55;1000.655;;;21.01;49.99707
80911;BME280;70359;51.420;7.032;2023-06-10T05:46:20;1000.64;;;21.08;50.11035
80911;BME280;70359;51.420;7.032;2023-06-10T05:48:45;1000.689;;;21.11;49.73047
80911;BME280;70359;51.420;7.032;2023-06-10T05:51:10;1000.685;;;21.15;48.88574
80911;BME280;70359;51.420;7.032;2023-06-10T05:53:35;1000.673;;;21.23;48.85938
80911;BME280;70359;51.420;7.032;2023-06-10T05:56:00;1000.67;;;21.31;48.45996
80911;BME280;70359;51.420;7.032;2023-06-10T05:58:25;1000.646;;;21.3;48.33105
80911;BME280;70359;51.420;7.032;2023-06-10T06:00:50;1000.7;;;21.42;47.86719
80911;BME280;70359;51.420;7.032;2023-06-10T06:03:15;1000.697;;;21.47;48.10547
80911;BME280;70359;51.420;7.032;2023-06-10T06:05:40;1000.712;;;21.57;47.8252
80911;BME280;70359;51.420;7.032;2023-06-10T06:08:05;1000.709;;;21.61;47.52539
80911;BME280;70359;51.420;7.032;2023-06-10T06:10:30;1000.735;;;21.7;47.62891
80911;BME280;70359;51.420;7.032;2023-06-10T06:12:55;1000.773;;;21.75;47.40234
80911;BME280;70359;51.420;7.032;2023-06-10T06:15:20;1000.744;;;21.87;47.40234
80911;BME280;70359;51.420;7.032;2023-06-10T06:17:45;1000.708;;;21.9;47.7666
80911;BME280;70359;51.420;7.032;2023-06-10T06:20:11;1000.744;;;22.02;46.56738
80911;BME280;70359;51.420;7.032;2023-06-10T06:22:35;1000.684;;;22.11;46.93848
80911;BME280;70359;51.420;7.032;2023-06-10T06:25:00;1000.665;;;22.18;45.97852
80911;BME280;70359;51.420;7.032;2023-06-10T06:27:25;1000.702;;;22.23;46.19238
80911;BME280;70359;51.420;7.032;2023-06-10T06:29:50;1000.662;;;22.28;45.52051
80911;BME280;70359;51.420;7.032;2023-06-10T06:32:15;1000.667;;;22.28;45.48633
80911;BME280;70359;51.420;7.032;2023-06-10T06:34:40;1000.669;;;22.3;45.27734
80911;BME280;70359;51.420;7.032;2023-06-10T06:37:05;1000.703;;;22.48;45.4707
80911;BME280;70359;51.420;7.032;2023-06-10T06:39:30;1000.711;;;22.53;45.39453
80911;BME280;70359;51.420;7.032;2023-06-10T06:41:55;1000.725;;;22.58;44.78027
80911;BME280;70359;51.420;7.032;2023-06-10T06:44:20;1000.729;;;22.66;44.2041
80911;BME280;70359;51.420;7.032;2023-06-10T06:46:45;1000.738;;;22.87;44.52832
80911;BME280;70359;51.420;7.032;2023-06-10T06:49:10;1000.732;;;22.81;43.86816
80911;BME280;70359;51.420;7.032;2023-06-10T06:51:35;1000.759;;;22.96;44.32715
80911;BME280;70359;51.420;7.032;2023-06-10T06:54:00;1000.739;;;23.08;43.93066
80911;BME280;70359;51.420;7.032;2023-06-10T06:56:25;1000.754;;;23.25;43.44434
80911;BME280;70359;51.420;7.032;2023-06-10T06:58:50;1000.75;;;23.38;43.66602
80911;BME280;70359;51.420;7.032;2023-06-10T07:01:15;1000.746;;;23.48;42.89063
80911;BME280;70359;51.420;7.032;2023-06-10T07:03:40;1000.818;;;23.54;42.65137
80911;BME280;70359;51.420;7.032;2023-06-10T07:06:05;1000.801;;;23.62;41.87402
80911;BME280;70359;51.420;7.032;2023-06-10T07:08:30;1000.835;;;23.65;41.72461
80911;BME280;70359;51.420;7.032;2023-06-10T07:10:55;1000.8;;;23.84;41.2373
80911;BME280;70359;51.420;7.032;2023-06-10T07:13:20;1000.823;;;23.82;40.88379
80911;BME280;70359;51.420;7.032;2023-06-10T07:15:45;1000.803;;;23.87;40.01953
80911;BME280;70359;51.420;7.032;2023-06-10T07:18:10;1000.823;;;23.94;40.28516
80911;BME280;70359;51.420;7.032;2023-06-10T07:20:35;1000.855;;;24.01;39.8457
80911;BME280;70359;51.420;7.032;2023-06-10T07:23:01;1000.803;;;24.12;39.96094
80911;BME280;70359;51.420;7.032;2023-06-10T07:25:25;1000.849;;;24.29;40.16406
80911;BME280;70359;51.420;7.032;2023-06-10T07:27:50;1000.813;;;24.38;39.81934
80911;BME280;70359;51.420;7.032;2023-06-10T07:30:16;1000.783;;;24.56;39.04785
80911;BME280;70359;51.420;7.032;2023-06-10T07:32:40;1000.813;;;24.6;38.81738
80911;BME280;70359;51.420;7.032;2023-06-10T07:35:07;1000.792;;;24.74;39.45215
80911;BME280;70359;51.420;7.032;2023-06-10T07:37:30;1000.778;;;24.72;38.69727
80911;BME280;70359;51.420;7.032;2023-06-10T07:39:55;1000.763;;;24.79;38.4209
80911;BME280;70359;51.420;7.032;2023-06-10T07:42:20;1000.733;;;24.91;38.36133
80911;BME280;70359;51.420;7.032;2023-06-10T07:44:45;1000.695;;;25.16;38.18164
80911;BME280;70359;51.420;7.032;2023-06-10T07:47:26;1000.738;;;25.23;38.55273
80911;BME280;70359;51.420;7.032;2023-06-10T07:49:35;1000.747;;;25.29;38.0293
80911;BME280;70359;51.420;7.032;2023-06-10T07:52:00;1000.703;;;25.37;38.01172
80911;BME280;70359;51.420;7.032;2023-06-10T07:54:25;1000.731;;;25.34;37.32617
80911;BME280;70359;51.420;7.032;2023-06-10T07:56:50;1000.758;;;25.37;37.72852
80911;BME280;70359;51.420;7.032;2023-06-10T07:59:15;1000.747;;;25.44;37.53516
80911;BME280;70359;51.420;7.032;2023-06-10T08:01:40;1000.764;;;25.66;38.20117
80911;BME280;70359;51.420;7.032;2023-06-10T08:04:05;1000.76;;;25.68;36.49316
80911;BME280;70359;51.420;7.032;2023-06-10T08:06:30;1000.787;;;25.65;36.78613
80911;BME280;70359;51.420;7.032;2023-06-10T08:08:55;1000.802;;;25.72;36.50879
80911;BME280;70359;51.420;7.032;2023-06-10T08:11:20;1000.832;;;25.83;37.40137
80911;BME280;70359;51.420;7.032;2023-06-10T08:13:45;1000.85;;;25.94;35.94824
80911;BME280;70359;51.420;7.032;2023-06-10T08:16:10;1000.819;;;25.98;35.00781
80911;BME280;70359;51.420;7.032;2023-06-10T08:18:35;1000.865;;;25.92;36.05176
80911;BME280;70359;51.420;7.032;2023-06-10T08:21:00;1000.856;;;26;35.94141
80911;BME280;70359;51.420;7.032;2023-06-10T08:23:25;1000.88;;;26.03;35.35352
80911;BME280;70359;51.420;7.032;2023-06-10T08:25:50;1000.888;;;26.09;36.04297
80911;BME280;70359;51.420;7.032;2023-06-10T08:28:15;1000.873;;;26.13;35.39551
80911;BME280;70359;51.420;7.032;2023-06-10T08:30:40;1000.866;;;26.25;35.66504
80911;BME280;70359;51.420;7.032;2023-06-10T08:33:05;1000.961;;;26.29;35.69238
80911;BME280;70359;51.420;7.032;2023-06-10T08:35:30;1000.9;;;26.42;34.48633
80911;BME280;70359;51.420;7.032;2023-06-10T08:37:55;1000.953;;;26.44;34.46289
80911;BME280;70359;51.420;7.032;2023-06-10T08:40:20;1000.989;;;26.51;34.57422
80911;BME280;70359;51.420;7.032;2023-06-10T08:42:48;1000.931;;;26.39;33.88086
80911;BME280;70359;51.420;7.032;2023-06-10T08:45:12;1000.953;;;26.37;34.34082
80911;BME280;70359;51.420;7.032;2023-06-10T08:47:35;1000.95;;;26.48;34.95117
80911;BME280;70359;51.420;7.032;2023-06-10T08:50:01;1000.986;;;26.56;34.65039
80911;BME280;70359;51.420;7.032;2023-06-10T08:52:37;1000.883;;;26.56;33.83398
80911;BME280;70359;51.420;7.032;2023-06-10T08:54:52;1000.925;;;26.57;33.29102
80911;BME280;70359;51.420;7.032;2023-06-10T08:57:16;1000.923;;;26.54;33.3125
80911;BME280;70359;51.420;7.032;2023-06-10T08:59:41;1000.881;;;26.47;33.61523
80911;BME280;70359;51.420;7.032;2023-06-10T09:02:06;1000.826;;;26.66;34.7998
80911;BME280;70359;51.420;7.032;2023-06-10T09:04:31;1000.896;;;26.59;35.18457
80911;BME280;70359;51.420;7.032;2023-06-10T09:06:56;1000.872;;;26.62;33.4834
80911;BME280;70359;51.420;7.032;2023-06-10T09:09:21;1000.865;;;26.59;34.32227
80911;BME280;70359;51.420;7.032;2023-06-10T09:11:46;1000.838;;;26.78;34.11133
80911;BME280;70359;51.420;7.032;2023-06-10T09:14:11;1000.757;;;26.74;34.4043
80911;BME280;70359;51.420;7.032;2023-06-10T09:16:37;1000.756;;;26.83;34.17383
80911;BME280;70359;51.420;7.032;2023-06-10T09:19:01;1000.78;;;26.9;33.72949
80911;BME280;70359;51.420;7.032;2023-06-10T09:21:26;1000.804;;;27.03;34.23535
80911;BME280;70359;51.420;7.032;2023-06-10T09:23:51;1000.783;;;27.14;33.97266
80911;BME280;70359;51.420;7.032;2023-06-10T09:26:16;1000.773;;;27.19;33.9873
80911;BME280;70359;51.420;7.032;2023-06-10T09:28:41;1000.732;;;27.12;34.17188
80911;BME280;70359;51.420;7.032;2023-06-10T09:31:06;1000.76;;;27.18;33.96387
80911;BME280;70359;51.420;7.032;2023-06-10T09:33:31;1000.736;;;27.13;34.82422
80911;BME280;70359;51.420;7.032;2023-06-10T09:35:56;1000.721;;;27.28;34.43262
80911;BME280;70359;51.420;7.032;2023-06-10T09:38:22;1000.713;;;27.2;34.58105
80911;BME280;70359;51.420;7.032;2023-06-10T09:40:52;1000.678;;;27.31;34.60156
80911;BME280;70359;51.420;7.032;2023-06-10T09:43:11;1000.729;;;27.26;34.27734
80911;BME280;70359;51.420;7.032;2023-06-10T09:45:36;1000.691;;;27.31;33.91504
80911;BME280;70359;51.420;7.032;2023-06-10T09:48:01;1000.712;;;27.37;35.04297
80911;BME280;70359;51.420;7.032;2023-06-10T09:50:26;1000.703;;;27.48;35.28906
80911;BME280;70359;51.420;7.032;2023-06-10T09:52:51;1000.698;;;27.41;35.29492
80911;BME280;70359;51.420;7.032;2023-06-10T09:55:16;1000.716;;;27.37;34.06055
80911;BME280;70359;51.420;7.032;2023-06-10T09:57:41;1000.702;;;27.33;34.81543
80911;BME280;70359;51.420;7.032;2023-06-10T10:00:08;1000.651;;;27.34;34.76855
80911;BME280;70359;51.420;7.032;2023-06-10T10:02:32;1000.636;;;27.35;34.11914
80911;BME280;70359;51.420;7.032;2023-06-10T10:04:56;1000.718;;;27.27;34.74023
80911;BME280;70359;51.420;7.032;2023-06-10T10:07:21;1000.605;;;27.37;34.40332
80911;BME280;70359;51.420;7.032;2023-06-10T10:09:46;1000.672;;;27.42;35.27246
80911;BME280;70359;51.420;7.032;2023-06-10T10:12:12;1000.658;;;27.41;34.08691
80911;BME280;70359;51.420;7.032;2023-06-10T10:14:36;1000.676;;;27.39;34.79688
80911;BME280;70359;51.420;7.032;2023-06-10T10:17:01;1000.715;;;27.32;33.93945
80911;BME280;70359;51.420;7.032;2023-06-10T10:19:27;1000.701;;;27.32;34.05664
80911;BME280;70359;51.420;7.032;2023-06-10T10:21:52;1000.659;;;27.38;34.06152
80911;BME280;70359;51.420;7.032;2023-06-10T10:24:17;1000.658;;;27.32;35.06348
80911;BME280;70359;51.420;7.032;2023-06-10T10:26:41;1000.655;;;27.38;34.06055
80911;BME280;70359;51.420;7.032;2023-06-10T10:29:10;1000.638;;;27.38;34.46387
80911;BME280;70359;51.420;7.032;2023-06-10T10:31:31;1000.632;;;27.38;34.08496
80911;BME280;70359;51.420;7.032;2023-06-10T10:33:58;1000.67;;;27.4;33.66016
80911;BME280;70359;51.420;7.032;2023-06-10T10:36:21;1000.574;;;27.5;33.33594
80911;BME280;70359;51.420;7.032;2023-06-10T10:38:46;1000.665;;;27.47;34.3877
80911;BME280;70359;51.420;7.032;2023-06-10T10:41:11;1000.675;;;27.56;33.35254
80911;BME280;70359;51.420;7.032;2023-06-10T10:43:36;1000.691;;;27.35;33.29004
80911;BME280;70359;51.420;7.032;2023-06-10T10:46:01;1000.599;;;27.39;34.0498
80911;BME280;70359;51.420;7.032;2023-06-10T10:48:26;1000.546;;;27.36;33.44336
80911;BME280;70359;51.420;7.032;2023-06-10T10:50:59;1000.514;;;27.41;34.18164
80911;BME280;70359;51.420;7.032;2023-06-10T10:53:19;1000.464;;;27.37;34.15527
80911;BME280;70359;51.420;7.032;2023-06-10T10:55:41;1000.498;;;27.48;34.12793
80911;BME280;70359;51.420;7.032;2023-06-10T10:58:06;1000.486;;;27.34;33.3125
80911;BME280;70359;51.420;7.032;2023-06-10T11:00:32;1000.514;;;27.46;33.87793
80911;BME280;70359;51.420;7.032;2023-06-10T11:02:56;1000.434;;;27.47;33.00195
80911;BME280;70359;51.420;7.032;2023-06-10T11:05:30;1000.405;;;27.47;31.84082
80911;BME280;70359;51.420;7.032;2023-06-10T11:07:55;1000.394;;;27.59;32.64355
80911;BME280;70359;51.420;7.032;2023-06-10T11:10:11;1000.37;;;27.66;32.64844
80911;BME280;70359;51.420;7.032;2023-06-10T11:12:45;1000.342;;;27.69;32.68555
80911;BME280;70359;51.420;7.032;2023-06-10T11:15:01;1000.32;;;27.63;33.13281
80911;BME280;70359;51.420;7.032;2023-06-10T11:17:26;1000.308;;;27.63;33.09668
80911;BME280;70359;51.420;7.032;2023-06-10T11:19:51;1000.285;;;27.58;33.15234
80911;BME280;70359;51.420;7.032;2023-06-10T11:22:18;1000.25;;;27.6;32.96387
80911;BME280;70359;51.420;7.032;2023-06-10T11:24:41;1000.211;;;27.74;32.84277
80911;BME280;70359;51.420;7.032;2023-06-10T11:27:18;1000.227;;;27.8;31.61523
80911;BME280;70359;51.420;7.032;2023-06-10T11:29:31;1000.3;;;27.71;32.64063
80911;BME280;70359;51.420;7.032;2023-06-10T11:31:57;1000.189;;;27.9;33.0332
80911;BME280;70359;51.420;7.032;2023-06-10T11:34:24;1000.22;;;27.74;32.73633
80911;BME280;70359;51.420;7.032;2023-06-10T11:36:46;1000.157;;;27.77;32.0166
80911;BME280;70359;51.420;7.032;2023-06-10T11:39:11;1000.134;;;27.75;31.56348
80911;BME280;70359;51.420;7.032;2023-06-10T11:41:37;1000.246;;;27.68;31.16699
80911;BME280;70359;51.420;7.032;2023-06-10T11:44:02;1000.237;;;27.67;30.96484
80911;BME280;70359;51.420;7.032;2023-06-10T11:46:26;1000.248;;;27.69;30.68262
80911;BME280;70359;51.420;7.032;2023-06-10T11:48:55;1000.11;;;27.86;30.70508
80911;BME280;70359;51.420;7.032;2023-06-10T11:51:16;1000.114;;;27.85;31.29883
80911;BME280;70359;51.420;7.032;2023-06-10T11:53:41;1000.079;;;27.85;31.29785
80911;BME280;70359;51.420;7.032;2023-06-10T11:56:06;1000.075;;;27.95;31.55273
80911;BME280;70359;51.420;7.032;2023-06-10T11:58:31;1000.07;;;27.99;31.33105
80911;BME280;70359;51.420;7.032;2023-06-10T12:00:56;1000.106;;;28.07;30.92188
80911;BME280;70359;51.420;7.032;2023-06-10T12:03:21;1000.086;;;28.08;31.23047
80911;BME280;70359;51.420;7.032;2023-06-10T12:08:11;1000.062;;;28.02;31.0957
80911;BME280;70359;51.420;7.032;2023-06-10T12:10:36;1000.031;;;28.13;31.11621
80911;BME280;70359;51.420;7.032;2023-06-10T12:13:01;1000.068;;;28.26;30.85059
80911;BME280;70359;51.420;7.032;2023-06-10T12:15:27;1000.055;;;28.25;30.6123
80911;BME280;70359;51.420;7.032;2023-06-10T12:17:53;1000.053;;;28.32;30.65332
80911;BME280;70359;51.420;7.032;2023-06-10T12:20:28;1000.058;;;28.4;30.45605
80911;BME280;70359;51.420;7.032;2023-06-10T12:22:42;999.985;;;28.41;29.45801